Accueil
METAR-TAF:

METAR-TAF

Aéroports :

Base aérienne de Wittmundhafen

Wittmund, Allemagne

latitude: 53-33N, longitude: 007-40E, altitude: 8 m

Observation

Le bulletin a été fait il y a 1 heure et 42 minutes, à 12:20 UTC
Vent 17 kt de est/nord-est
Température 21°C
Humidité 38%
Pression 1024 hPa
Visibilité 10 km ou plus
Quelques nuages à une hauteur de 38000 ft

METAR: ETNT 011220Z 07017KT 9999 FEW380 21/06 Q1024 BLU+

Heure: 16:02 (14:02 UTC)

Prévision

Le bulletin a été fait il y a 4 heures et 2 minutes, à 10:00 UTC
Prévision valable du 01 à 11 UTC au 01 à 20 UTC
Vent 12 kt de est avec des rafales jusqu'à 22 kt
Visibilité 10 km ou plus
Quelques nuages à une hauteur de 35000 ft

TAF: ETNT 011000Z 0111/0120 09012G22KT 9999 NSW FEW350 BY ETGL

Observations et prévisions météorologiques de plus de 4000 aéroports (messages METAR et TAF).

Les stations disponibles sont représentées par des disques jaunes et rouges sur la carte.

Passer la souris dessus pour voir le nom de la station.

Cliquer dessus pour voir les observations et prévisions météorologiques.

Pour changer de carte: cliquez sur les boutons verts avec une croix noire pour zoomer, sur le bouton vert avec un tiret pour effectuer un zoom arrière, ou sur les flèches vertes pour les cartes adjacentes.


METAR-TAF: